Time;durP1;ratioP1;P1;durP2;ratioP2;P2;SDS_P1;SDS_P2;PMS_P1;PMS_P2;Temp;Humidity;BMP_temperature;BMP_pressure;BME280_temperature;BME280_humidity;BME280_pressure;Samples;Min_cycle;Max_cycle;Signal;HPM_P1;HPM_P2
2024/03/03 00:00:13;;;;;;;28.10;16.23;;;6.20;67.40;;;;;;5075452;28;20190;-67
2024/03/03 00:02:40;;;;;;;22.00;15.00;;;6.10;68.50;;;;;;5075304;28;20190;-67
2024/03/03 00:05:08;;;;;;;21.67;14.10;;;6.10;69.60;;;;;;5075041;28;20221;-68
2024/03/03 00:07:35;;;;;;;18.25;13.07;;;6.20;70.00;;;;;;5074871;28;20222;-67
2024/03/03 00:10:03;;;;;;;17.30;10.68;;;6.10;70.20;;;;;;5075179;28;20252;-68
2024/03/03 00:12:32;;;;;;;13.35;9.70;;;6.10;70.50;;;;;;5074671;28;20273;-69
2024/03/03 00:15:00;;;;;;;16.30;11.32;;;6.10;70.50;;;;;;5075284;28;20222;-69
2024/03/03 00:17:27;;;;;;;19.90;11.77;;;6.10;70.20;;;;;;5074791;28;20194;-68
2024/03/03 00:19:54;;;;;;;17.85;12.63;;;6.10;69.70;;;;;;5074353;28;20232;-68
2024/03/03 00:22:21;;;;;;;21.77;14.85;;;6.20;69.10;;;;;;5074354;28;20194;-68
2024/03/03 00:24:51;;;;;;;19.08;13.13;;;6.10;68.80;;;;;;5074984;28;20248;-68
2024/03/03 00:27:18;;;;;;;13.57;10.20;;;6.00;68.90;;;;;;5074878;28;20184;-69
2024/03/03 00:29:47;;;;;;;13.25;9.73;;;6.00;68.90;;;;;;5074516;28;20676;-68
2024/03/03 00:32:14;;;;;;;16.25;10.77;;;6.00;69.20;;;;;;5074837;28;20240;-70
2024/03/03 00:34:43;;;;;;;16.42;10.05;;;5.90;67.50;;;;;;5074028;28;20233;-67
2024/03/03 00:37:12;;;;;;;15.88;10.30;;;5.90;67.30;;;;;;5074605;28;20202;-67
2024/03/03 00:39:39;;;;;;;14.00;9.80;;;5.90;67.50;;;;;;5074481;28;20277;-68
2024/03/03 00:42:15;;;;;;;12.18;8.20;;;5.80;67.80;;;;;;5074084;28;20190;-69
2024/03/03 00:44:42;;;;;;;11.27;8.63;;;5.80;68.20;;;;;;5074204;28;20644;-68
2024/03/03 00:47:10;;;;;;;12.43;8.95;;;5.80;68.10;;;;;;5074210;28;20218;-68
2024/03/03 00:49:37;;;;;;;13.70;8.85;;;5.80;67.50;;;;;;5074410;28;20256;-68
2024/03/03 00:52:11;;;;;;;13.80;9.85;;;5.70;68.10;;;;;;5074019;28;20276;-68
2024/03/03 00:54:38;;;;;;;17.40;10.77;;;5.70;67.80;;;;;;5073956;28;20225;-69
2024/03/03 00:57:14;;;;;;;14.00;9.93;;;5.60;66.70;;;;;;5073854;28;20186;-68
2024/03/03 00:59:42;;;;;;;13.55;9.93;;;5.50;66.50;;;;;;5051079;28;20194;-69
2024/03/03 01:02:11;;;;;;;15.18;9.70;;;5.50;67.30;;;;;;5055834;28;20543;-69
2024/03/03 01:04:43;;;;;;;15.48;10.80;;;5.50;67.80;;;;;;5073189;28;20221;-69
2024/03/03 01:07:12;;;;;;;15.65;11.00;;;5.50;68.10;;;;;;5072322;28;20201;-69
2024/03/03 01:09:44;;;;;;;15.30;11.05;;;5.50;68.30;;;;;;5072238;28;20698;-69
2024/03/03 01:12:15;;;;;;;18.50;11.50;;;5.40;68.60;;;;;;5073884;28;20190;-69
2024/03/03 01:14:44;;;;;;;18.15;10.10;;;5.40;68.90;;;;;;5074047;28;20235;-68
2024/03/03 01:17:12;;;;;;;15.68;11.38;;;5.40;69.20;;;;;;5073645;28;20194;-68
2024/03/03 01:19:40;;;;;;;16.98;11.05;;;5.40;69.80;;;;;;5073959;28;20240;-68
2024/03/03 01:22:07;;;;;;;16.20;11.80;;;5.40;70.40;;;;;;5073763;28;20714;-68
2024/03/03 01:24:39;;;;;;;14.98;10.40;;;5.40;70.20;;;;;;5073898;28;20222;-68
2024/03/03 01:27:06;;;;;;;15.63;9.50;;;5.40;70.60;;;;;;5073526;28;20277;-68
2024/03/03 01:29:37;;;;;;;14.25;9.60;;;5.50;70.70;;;;;;5073678;28;20599;-68
2024/03/03 01:32:07;;;;;;;11.25;8.88;;;5.50;70.70;;;;;;5073709;28;20217;-68
2024/03/03 01:34:36;;;;;;;16.42;9.35;;;5.50;71.10;;;;;;5072919;28;20194;-68
2024/03/03 01:37:05;;;;;;;14.35;9.10;;;5.50;71.10;;;;;;5073952;28;20197;-68
2024/03/03 01:39:36;;;;;;;14.40;10.23;;;5.50;71.60;;;;;;5073584;28;20194;-68
2024/03/03 01:42:04;;;;;;;9.52;8.18;;;5.50;70.90;;;;;;5073190;28;20214;-67
2024/03/03 01:44:31;;;;;;;12.82;9.30;;;5.50;69.90;;;;;;5073031;28;20217;-67
2024/03/03 01:46:59;;;;;;;13.05;9.73;;;5.50;67.80;;;;;;5073404;28;20225;-67
2024/03/03 01:49:27;;;;;;;11.98;8.40;;;5.40;66.40;;;;;;5072954;28;20676;-67
2024/03/03 01:52:04;;;;;;;17.23;10.35;;;5.30;67.20;;;;;;5073555;28;20236;-67
2024/03/03 01:54:37;;;;;;;14.48;8.57;;;5.30;67.90;;;;;;5073682;28;20221;-67
2024/03/03 01:57:16;;;;;;;12.60;9.13;;;5.30;68.20;;;;;;5073281;28;20188;-67
2024/03/03 01:59:52;;;;;;;13.07;8.70;;;5.20;68.80;;;;;;5073522;28;20579;-67
2024/03/03 02:02:26;;;;;;;12.63;9.25;;;5.20;69.20;;;;;;5073622;28;20265;-67
2024/03/03 02:04:58;;;;;;;13.38;9.60;;;5.20;69.70;;;;;;5073452;28;20182;-67
2024/03/03 02:07:28;;;;;;;13.80;9.07;;;5.20;70.10;;;;;;5073059;28;20693;-67
2024/03/03 02:09:56;;;;;;;13.32;8.77;;;5.10;70.30;;;;;;5073368;28;20260;-67
2024/03/03 02:12:25;;;;;;;14.25;9.25;;;5.20;70.70;;;;;;5073180;28;20604;-67
2024/03/03 02:14:58;;;;;;;12.90;9.30;;;5.20;71.10;;;;;;5073402;28;20304;-67
2024/03/03 02:17:27;;;;;;;16.05;8.70;;;5.20;71.10;;;;;;5072852;28;20213;-67
2024/03/03 02:19:57;;;;;;;12.15;8.18;;;5.30;71.40;;;;;;5072989;28;20213;-67
2024/03/03 02:22:26;;;;;;;13.68;9.25;;;5.30;70.90;;;;;;5073280;28;20537;-67
2024/03/03 02:24:55;;;;;;;13.25;8.88;;;5.30;69.30;;;;;;5072925;28;20585;-67
2024/03/03 02:27:23;;;;;;;17.65;10.23;;;5.20;68.60;;;;;;5073182;28;20597;-69
2024/03/03 02:29:50;;;;;;;15.27;11.32;;;5.20;68.80;;;;;;5072902;28;20213;-67
2024/03/03 02:32:18;;;;;;;22.80;13.27;;;5.10;69.20;;;;;;5072998;28;20247;-67
2024/03/03 02:34:45;;;;;;;25.48;12.77;;;5.10;69.60;;;;;;5073096;28;20244;-67
2024/03/03 02:37:13;;;;;;;20.30;13.45;;;5.10;69.90;;;;;;5073140;28;20240;-67
2024/03/03 02:39:42;;;;;;;17.40;11.57;;;5.20;70.10;;;;;;5072775;28;20252;-67
2024/03/03 02:42:18;;;;;;;20.88;11.82;;;5.20;69.10;;;;;;5072966;28;20187;-68
2024/03/03 02:44:48;;;;;;;19.63;11.95;;;5.20;69.10;;;;;;5074431;28;20209;-68
2024/03/03 02:47:15;;;;;;;22.98;11.65;;;5.10;68.90;;;;;;5076766;28;20190;-68
2024/03/03 02:49:42;;;;;;;21.08;12.40;;;5.10;69.00;;;;;;5075764;28;20210;-68
2024/03/03 02:52:14;;;;;;;18.05;10.35;;;5.10;68.80;;;;;;5076252;28;20221;-68
2024/03/03 02:54:43;;;;;;;12.48;8.68;;;5.10;69.30;;;;;;5076585;28;20274;-68
2024/03/03 02:57:15;;;;;;;11.02;7.10;;;5.10;69.80;;;;;;5076460;28;20222;-68
2024/03/03 02:59:43;;;;;;;11.43;6.32;;;5.20;70.60;;;;;;5076267;28;20213;-68
2024/03/03 03:02:14;;;;;;;9.95;5.68;;;5.20;71.20;;;;;;5076286;28;20232;-68
2024/03/03 03:04:47;;;;;;;9.23;5.75;;;5.30;71.50;;;;;;5075994;28;20225;-68
2024/03/03 03:07:20;;;;;;;8.95;5.90;;;5.30;71.40;;;;;;5076158;28;20222;-68
2024/03/03 03:09:51;;;;;;;16.27;8.27;;;5.30;70.50;;;;;;5076163;28;20202;-68
2024/03/03 03:12:19;;;;;;;15.15;8.70;;;5.30;69.70;;;;;;5076265;28;20174;-68
2024/03/03 03:15:00;;;;;;;12.57;7.38;;;5.40;68.90;;;;;;5076137;28;20194;-68
2024/03/03 03:17:27;;;;;;;18.10;7.65;;;5.30;68.20;;;;;;5076235;28;20182;-68
2024/03/03 03:19:56;;;;;;;11.73;7.97;;;5.30;67.60;;;;;;5075531;28;20198;-68
2024/03/03 03:22:24;;;;;;;11.63;7.53;;;5.20;67.60;;;;;;5075430;28;20197;-68
2024/03/03 03:24:52;;;;;;;11.90;6.85;;;5.20;67.50;;;;;;5075917;28;20236;-68
2024/03/03 03:27:24;;;;;;;15.82;8.52;;;5.20;66.80;;;;;;5075562;28;20283;-68
2024/03/03 03:29:51;;;;;;;12.80;7.63;;;5.20;66.90;;;;;;5075822;28;20292;-68
2024/03/03 03:32:23;;;;;;;15.50;7.78;;;5.10;67.00;;;;;;5075404;28;20190;-68
2024/03/03 03:34:52;;;;;;;12.30;8.23;;;5.10;67.50;;;;;;5075848;28;20185;-69
2024/03/03 03:37:25;;;;;;;10.35;5.28;;;5.10;67.50;;;;;;5075635;28;20225;-69
2024/03/03 03:39:53;;;;;;;11.75;6.07;;;5.10;67.10;;;;;;5075078;28;20228;-67
2024/03/03 03:42:29;;;;;;;9.10;5.13;;;5.00;67.70;;;;;;5074775;28;20685;-68
2024/03/03 03:44:58;;;;;;;10.85;5.00;;;5.00;68.50;;;;;;5075551;28;20221;-68
2024/03/03 03:47:28;;;;;;;7.20;3.70;;;5.10;69.00;;;;;;5075232;28;20191;-67
2024/03/03 03:49:55;;;;;;;6.15;3.85;;;5.10;69.10;;;;;;5075083;28;20257;-67
2024/03/03 03:52:26;;;;;;;9.25;4.68;;;5.10;69.70;;;;;;5075283;28;20247;-67
2024/03/03 03:55:04;;;;;;;5.50;3.72;;;5.20;70.20;;;;;;5075727;28;20190;-67
2024/03/03 03:57:35;;;;;;;6.60;4.20;;;5.20;68.40;;;;;;5074510;28;20185;-67
2024/03/03 04:00:05;;;;;;;7.18;4.05;;;5.20;68.40;;;;;;5075239;28;20210;-68
2024/03/03 04:02:34;;;;;;;9.13;5.05;;;5.20;67.60;;;;;;5074925;28;20256;-68
2024/03/03 04:05:18;;;;;;;8.10;4.72;;;5.20;66.80;;;;;;5075301;28;20198;-68
2024/03/03 04:07:45;;;;;;;8.20;4.35;;;5.10;66.50;;;;;;5075528;28;20201;-68
2024/03/03 04:10:17;;;;;;;9.40;5.15;;;5.00;67.00;;;;;;5074844;28;20214;-68
2024/03/03 04:12:45;;;;;;;8.38;4.93;;;5.00;68.10;;;;;;5074885;28;20197;-67
2024/03/03 04:15:16;;;;;;;11.07;4.35;;;5.00;67.70;;;;;;5074939;28;20644;-67
2024/03/03 04:17:44;;;;;;;8.23;4.32;;;5.00;68.10;;;;;;5074769;28;20229;-68
2024/03/03 04:20:17;;;;;;;6.82;3.63;;;4.90;67.20;;;;;;5074612;28;20198;-68
2024/03/03 04:22:49;;;;;;;6.93;4.13;;;4.90;67.50;;;;;;5074574;28;20255;-69
2024/03/03 04:25:23;;;;;;;8.35;4.45;;;4.90;68.20;;;;;;5074626;28;20544;-68
2024/03/03 04:27:52;;;;;;;5.47;3.63;;;4.90;68.80;;;;;;5074503;28;20269;-68
2024/03/03 04:30:36;;;;;;;6.30;4.35;;;4.90;69.20;;;;;;5074687;28;20638;-69
2024/03/03 04:33:07;;;;;;;7.72;3.70;;;4.90;69.40;;;;;;5074643;28;20178;-68
2024/03/03 04:35:42;;;;;;;9.00;4.72;;;5.00;69.80;;;;;;5074913;28;20178;-68
2024/03/03 04:38:11;;;;;;;5.78;3.72;;;5.00;69.10;;;;;;5074256;28;20586;-68
2024/03/03 04:40:43;;;;;;;7.30;4.45;;;4.90;69.70;;;;;;5074500;28;20237;-69
2024/03/03 04:43:12;;;;;;;13.65;4.90;;;4.80;70.10;;;;;;5073602;28;20225;-69
2024/03/03 04:45:41;;;;;;;7.65;3.40;;;4.80;70.40;;;;;;5074455;28;20251;-69
2024/03/03 04:48:11;;;;;;;4.57;2.13;;;4.90;70.50;;;;;;5074395;28;20209;-67
2024/03/03 04:50:41;;;;;;;3.90;2.83;;;4.90;70.50;;;;;;5074305;28;20293;-67
2024/03/03 04:53:10;;;;;;;6.20;3.33;;;5.00;70.50;;;;;;5074044;28;20252;-67
2024/03/03 04:55:39;;;;;;;4.60;2.85;;;4.90;70.90;;;;;;5073870;28;20190;-67
2024/03/03 04:58:07;;;;;;;4.85;2.50;;;5.00;71.20;;;;;;5073837;28;20278;-67
2024/03/03 05:00:40;;;;;;;4.75;2.75;;;5.00;71.30;;;;;;5074134;28;20269;-67
2024/03/03 05:03:08;;;;;;;5.03;2.70;;;5.10;71.30;;;;;;5073656;28;20267;-67
2024/03/03 05:05:35;;;;;;;4.13;2.65;;;5.10;71.20;;;;;;5074067;28;20277;-67
2024/03/03 05:08:04;;;;;;;5.88;3.40;;;5.20;71.30;;;;;;5073154;28;20570;-67
2024/03/03 05:10:31;;;;;;;5.30;2.83;;;5.20;70.90;;;;;;5073868;28;20587;-69
2024/03/03 05:12:59;;;;;;;5.55;2.40;;;5.20;70.60;;;;;;5073281;28;20214;-69
2024/03/03 05:15:28;;;;;;;3.53;2.00;;;5.20;70.40;;;;;;5073976;28;20222;-68
2024/03/03 05:18:00;;;;;;;3.17;2.10;;;5.30;70.10;;;;;;5073905;28;20255;-69
2024/03/03 05:20:29;;;;;;;6.07;2.15;;;5.30;69.80;;;;;;5073753;28;20186;-69
2024/03/03 05:23:04;;;;;;;4.35;2.38;;;5.40;69.70;;;;;;5073394;28;20190;-69
2024/03/03 05:25:31;;;;;;;3.83;1.67;;;5.40;69.50;;;;;;5073326;28;20186;-69
2024/03/03 05:28:00;;;;;;;4.90;2.15;;;5.40;69.20;;;;;;5073672;28;20605;-69
2024/03/03 05:30:28;;;;;;;10.25;2.50;;;5.50;69.00;;;;;;5073558;28;20259;-68
2024/03/03 05:32:55;;;;;;;2.88;1.63;;;5.50;69.00;;;;;;5073362;28;20214;-68
2024/03/03 05:35:23;;;;;;;3.15;1.90;;;5.50;68.70;;;;;;5073552;28;20198;-68
2024/03/03 05:37:51;;;;;;;4.15;2.13;;;5.50;68.60;;;;;;5073747;28;20221;-68
2024/03/03 05:40:20;;;;;;;4.70;2.35;;;5.60;68.60;;;;;;5073468;28;20195;-67
2024/03/03 05:42:47;;;;;;;3.00;1.60;;;5.60;68.40;;;;;;5072731;28;20565;-67
2024/03/03 05:45:16;;;;;;;3.78;2.13;;;5.60;68.30;;;;;;5073162;28;20528;-68
2024/03/03 05:47:52;;;;;;;4.10;1.80;;;5.60;68.40;;;;;;5072998;28;20229;-68
2024/03/03 05:50:24;;;;;;;3.10;1.73;;;5.60;68.30;;;;;;5072998;28;20214;-68
2024/03/03 05:52:54;;;;;;;10.55;6.78;;;5.60;68.30;;;;;;5072799;28;20182;-69
2024/03/03 05:55:25;;;;;;;16.58;9.82;;;5.60;67.90;;;;;;5072709;28;20555;-68
2024/03/03 05:57:53;;;;;;;9.10;4.40;;;5.60;67.70;;;;;;5072933;28;20261;-68
2024/03/03 06:00:22;;;;;;;5.50;3.63;;;5.60;66.80;;;;;;5072721;28;20549;-68
2024/03/03 06:02:49;;;;;;;4.65;2.60;;;5.60;65.70;;;;;;5056953;28;20636;-68
2024/03/03 06:05:17;;;;;;;5.35;2.10;;;5.50;65.70;;;;;;5072612;28;20217;-68
2024/03/03 06:07:43;;;;;;;4.45;1.83;;;5.50;65.70;;;;;;5072655;28;20213;-68
2024/03/03 06:10:12;;;;;;;3.40;1.90;;;5.40;65.10;;;;;;5072903;28;20214;-67
2024/03/03 06:12:40;;;;;;;4.65;2.30;;;5.40;65.50;;;;;;5071310;28;20543;-68
2024/03/03 06:15:07;;;;;;;6.47;2.92;;;5.30;65.50;;;;;;5073143;28;20218;-68
2024/03/03 06:17:37;;;;;;;4.53;2.50;;;5.30;66.80;;;;;;5072850;28;20186;-69
2024/03/03 06:20:08;;;;;;;4.18;2.08;;;5.40;67.50;;;;;;5075345;28;20197;-68
2024/03/03 06:22:35;;;;;;;4.50;2.50;;;5.40;66.60;;;;;;5076015;28;20236;-69
2024/03/03 06:25:04;;;;;;;5.65;2.50;;;5.50;66.50;;;;;;5076431;28;20654;-68
2024/03/03 06:27:33;;;;;;;4.55;1.90;;;5.40;66.50;;;;;;5076765;28;20240;-68
2024/03/03 06:30:00;;;;;;;4.18;2.42;;;5.40;66.80;;;;;;5076494;28;20287;-69
2024/03/03 06:32:29;;;;;;;8.85;4.55;;;5.50;67.30;;;;;;5076808;28;20591;-68
2024/03/03 06:34:58;;;;;;;7.68;4.78;;;5.50;67.50;;;;;;5076439;28;20186;-68
2024/03/03 06:37:25;;;;;;;7.47;3.50;;;5.60;68.10;;;;;;5076393;28;20190;-68
2024/03/03 06:39:56;;;;;;;6.38;3.72;;;5.60;68.40;;;;;;5076164;28;20193;-68
2024/03/03 06:42:24;;;;;;;5.78;2.42;;;5.70;68.60;;;;;;5075937;28;20178;-67
2024/03/03 06:44:51;;;;;;;15.27;8.52;;;5.70;68.80;;;;;;5076264;28;20253;-67
2024/03/03 06:47:24;;;;;;;9.65;5.80;;;5.90;69.70;;;;;;5076714;28;20186;-67
2024/03/03 06:49:52;;;;;;;4.88;3.13;;;5.90;68.30;;;;;;5076563;28;20244;-67
2024/03/03 06:52:21;;;;;;;6.05;3.17;;;6.10;67.50;;;;;;5076383;28;20200;-67
2024/03/03 06:54:48;;;;;;;6.70;3.25;;;6.20;67.40;;;;;;5075639;28;20699;-68
2024/03/03 06:57:21;;;;;;;6.28;3.58;;;6.30;67.60;;;;;;5076255;28;20190;-68
2024/03/03 06:59:48;;;;;;;5.43;3.20;;;6.50;67.90;;;;;;5074338;28;20692;-68
2024/03/03 07:02:18;;;;;;;5.00;2.47;;;6.70;67.40;;;;;;5075058;28;20225;-68
2024/03/03 07:05:00;;;;;;;10.52;6.97;;;6.80;65.80;;;;;;5075005;28;20229;-68
2024/03/03 07:07:29;;;;;;;9.77;6.60;;;7.00;66.40;;;;;;5075546;28;20536;-67
2024/03/03 07:09:56;;;;;;;11.70;4.82;;;7.40;65.20;;;;;;5073107;28;20217;-68
2024/03/03 07:12:23;;;;;;;5.55;4.15;;;7.60;63.60;;;;;;5074798;28;20236;-68
2024/03/03 07:14:50;;;;;;;6.20;4.25;;;7.80;62.70;;;;;;5074021;28;20222;-68
2024/03/03 07:17:18;;;;;;;15.70;7.70;;;8.10;61.80;;;;;;5071604;28;20649;-68
2024/03/03 07:19:45;;;;;;;8.57;5.68;;;8.50;62.40;;;;;;5074026;28;20190;-67
2024/03/03 07:22:13;;;;;;;6.80;5.20;;;8.90;61.10;;;;;;5074050;28;20239;-68
2024/03/03 07:24:41;;;;;;;7.53;5.57;;;9.50;61.20;;;;;;5074731;28;20256;-67
2024/03/03 07:27:10;;;;;;;4.40;2.75;;;10.10;60.40;;;;;;5074960;28;20209;-67
2024/03/03 07:29:44;;;;;;;3.67;2.20;;;10.60;60.80;;;;;;5075132;28;20240;-67
2024/03/03 07:32:11;;;;;;;5.50;3.10;;;11.20;61.30;;;;;;5073952;28;20192;-67
2024/03/03 07:34:38;;;;;;;4.03;2.17;;;11.80;61.10;;;;;;5073243;28;20186;-68
2024/03/03 07:37:06;;;;;;;3.70;2.30;;;12.60;60.10;;;;;;5073906;28;20788;-68
2024/03/03 07:39:33;;;;;;;4.10;1.90;;;13.40;58.70;;;;;;5074671;28;20440;-68
2024/03/03 07:42:01;;;;;;;3.70;2.10;;;14.40;57.40;;;;;;5074771;28;20447;-68
2024/03/03 07:44:29;;;;;;;3.53;2.33;;;15.20;54.00;;;;;;5074474;28;20541;-68
2024/03/03 07:46:56;;;;;;;4.77;1.97;;;15.60;51.10;;;;;;5074388;28;20521;-68
2024/03/03 07:49:27;;;;;;;2.90;1.63;;;15.80;51.50;;;;;;5074302;28;20425;-69
2024/03/03 07:52:03;;;;;;;3.50;1.73;;;16.10;49.70;;;;;;5073855;28;20501;-69
2024/03/03 07:54:30;;;;;;;6.17;2.10;;;16.30;49.00;;;;;;5074585;28;20455;-69
2024/03/03 07:56:57;;;;;;;7.70;3.90;;;16.40;47.00;;;;;;5074176;28;20442;-68
2024/03/03 07:59:26;;;;;;;6.23;4.07;;;16.40;45.40;;;;;;5074233;28;20984;-69
2024/03/03 08:01:53;;;;;;;6.80;3.87;;;16.50;45.00;;;;;;5073752;28;20492;-69
2024/03/03 08:04:20;;;;;;;5.73;2.87;;;16.70;45.50;;;;;;5071537;28;20462;-69
2024/03/03 08:06:47;;;;;;;6.57;3.93;;;16.70;43.60;;;;;;5073772;28;20450;-69
2024/03/03 08:09:14;;;;;;;3.50;2.10;;;16.70;43.30;;;;;;5074065;28;20843;-69
2024/03/03 08:11:41;;;;;;;2.77;0.97;;;16.60;42.50;;;;;;5051899;28;21051;-69
2024/03/03 08:14:08;;;;;;;2.00;0.67;;;16.50;41.70;;;;;;5072056;28;20509;-68
2024/03/03 08:16:36;;;;;;;2.27;0.70;;;16.30;37.80;;;;;;5073984;28;20531;-68
2024/03/03 08:19:04;;;;;;;1.70;0.60;;;16.10;39.00;;;;;;5073260;28;20464;-69
2024/03/03 08:21:31;;;;;;;2.27;1.00;;;16.00;36.60;;;;;;5073307;28;20522;-69
2024/03/03 08:23:58;;;;;;;2.10;0.90;;;15.80;37.10;;;;;;5072160;28;20491;-68
2024/03/03 08:26:26;;;;;;;1.90;0.70;;;15.60;35.50;;;;;;5063188;28;20450;-68
2024/03/03 08:28:53;;;;;;;2.40;0.97;;;15.50;35.20;;;;;;5072896;28;20883;-67
2024/03/03 08:31:21;;;;;;;2.40;0.77;;;15.30;34.00;;;;;;5060807;28;20484;-68
2024/03/03 08:33:50;;;;;;;1.70;0.60;;;15.20;35.00;;;;;;5073054;28;20441;-68
2024/03/03 08:36:17;;;;;;;2.50;1.00;;;15.30;35.20;;;;;;5068754;28;20434;-68
2024/03/03 08:38:45;;;;;;;1.80;0.60;;;15.40;34.20;;;;;;5070454;28;20429;-68
2024/03/03 08:41:15;;;;;;;2.00;0.83;;;15.60;33.20;;;;;;5070648;28;20467;-69
2024/03/03 08:43:42;;;;;;;2.93;0.80;;;15.90;33.10;;;;;;5051698;28;20582;-68
2024/03/03 08:46:09;;;;;;;3.80;0.80;;;16.10;33.30;;;;;;5071733;28;20530;-68
2024/03/03 08:48:35;;;;;;;2.53;1.13;;;16.20;32.80;;;;;;5071398;28;20907;-68
2024/03/03 08:51:09;;;;;;;2.63;1.33;;;16.20;32.20;;;;;;5069292;28;20538;-68
2024/03/03 08:53:36;;;;;;;2.93;0.80;;;16.00;31.50;;;;;;5072530;28;20441;-68
2024/03/03 08:56:04;;;;;;;3.23;0.80;;;15.90;30.30;;;;;;5066505;28;20520;-68
2024/03/03 08:58:31;;;;;;;2.97;1.10;;;15.70;30.00;;;;;;5072195;28;20437;-68
2024/03/03 09:00:57;;;;;;;2.30;0.87;;;15.60;30.20;;;;;;5071486;28;20436;-68
2024/03/03 09:03:24;;;;;;;2.00;0.50;;;15.60;31.20;;;;;;5070844;28;20431;-68
2024/03/03 09:05:51;;;;;;;2.33;0.63;;;15.70;32.30;;;;;;5071980;28;20920;-68
2024/03/03 09:08:20;;;;;;;2.00;0.90;;;15.70;32.90;;;;;;5072611;28;20431;-68
2024/03/03 09:10:56;;;;;;;2.30;0.90;;;15.80;32.40;;;;;;5071948;28;20476;-67
2024/03/03 09:13:23;;;;;;;2.30;0.80;;;15.80;31.70;;;;;;5071505;28;20524;-68
2024/03/03 09:15:50;;;;;;;3.10;1.27;;;15.70;30.60;;;;;;5070796;28;20465;-67
2024/03/03 09:18:16;;;;;;;6.37;0.90;;;15.70;29.00;;;;;;5072268;28;20420;-68
2024/03/03 09:20:44;;;;;;;2.13;0.77;;;15.60;28.70;;;;;;5071524;28;20939;-69
2024/03/03 09:23:11;;;;;;;2.57;0.93;;;15.60;28.40;;;;;;5072348;28;20436;-69
2024/03/03 09:25:39;;;;;;;2.10;0.80;;;15.50;28.70;;;;;;5072501;28;20456;-69
2024/03/03 09:28:07;;;;;;;2.73;1.00;;;15.50;28.40;;;;;;5072464;28;20469;-68
2024/03/03 09:30:34;;;;;;;2.50;0.80;;;15.50;28.80;;;;;;5071399;28;20429;-69
2024/03/03 09:33:02;;;;;;;2.13;0.90;;;15.60;28.70;;;;;;5072688;28;20520;-68
2024/03/03 09:35:28;;;;;;;2.17;0.90;;;15.70;29.70;;;;;;5072459;28;20465;-68
2024/03/03 09:37:55;;;;;;;2.10;0.70;;;15.80;28.60;;;;;;5072024;28;20940;-69
2024/03/03 09:40:23;;;;;;;2.77;0.90;;;16.10;28.90;;;;;;5071137;28;20525;-69
2024/03/03 09:42:53;;;;;;;4.83;0.80;;;16.50;29.10;;;;;;5065454;28;20598;-69
2024/03/03 09:45:21;;;;;;;2.33;0.70;;;16.60;27.00;;;;;;5071997;28;20435;-68
2024/03/03 09:47:49;;;;;;;2.07;0.97;;;16.60;26.60;;;;;;5072374;28;20525;-69
2024/03/03 09:50:15;;;;;;;2.23;0.77;;;16.50;26.90;;;;;;5071661;28;21007;-69
2024/03/03 09:52:43;;;;;;;2.10;0.80;;;16.70;27.00;;;;;;5070578;28;20535;-69
2024/03/03 09:55:11;;;;;;;2.00;0.80;;;17.10;26.80;;;;;;5070910;28;20471;-69
2024/03/03 09:57:39;;;;;;;2.90;0.70;;;17.40;26.50;;;;;;5072106;28;20522;-69
2024/03/03 10:00:09;;;;;;;3.80;0.70;;;17.50;25.10;;;;;;5072091;28;20476;-68
2024/03/03 10:02:38;;;;;;;2.10;0.70;;;17.50;25.00;;;;;;5072006;28;20428;-69
2024/03/03 10:05:07;;;;;;;3.07;0.80;;;17.70;25.70;;;;;;5072240;28;20458;-70
2024/03/03 10:07:40;;;;;;;3.03;0.90;;;18.20;25.80;;;;;;5072039;28;20436;-69
2024/03/03 10:10:16;;;;;;;1.90;0.60;;;19.10;26.20;;;;;;5071561;28;20442;-69
2024/03/03 10:12:47;;;;;;;2.00;0.80;;;19.90;24.10;;;;;;5071291;28;20467;-69
2024/03/03 10:15:17;;;;;;;5.03;1.00;;;20.20;22.70;;;;;;5072202;28;20526;-69
2024/03/03 10:17:44;;;;;;;2.00;0.70;;;19.90;22.40;;;;;;5071967;28;20436;-69
2024/03/03 10:20:12;;;;;;;2.63;0.90;;;19.60;22.30;;;;;;5070656;28;20511;-69
2024/03/03 10:22:40;;;;;;;2.50;1.00;;;19.20;22.80;;;;;;5072112;28;20443;-69
2024/03/03 10:25:12;;;;;;;2.00;0.60;;;18.90;23.20;;;;;;5073009;28;20428;-69
2024/03/03 10:27:48;;;;;;;3.00;0.60;;;18.70;23.10;;;;;;5070117;28;20420;-69
2024/03/03 10:30:22;;;;;;;2.50;0.90;;;18.50;23.30;;;;;;5070260;28;20462;-68
2024/03/03 10:32:50;;;;;;;2.63;0.80;;;18.30;23.10;;;;;;5068718;28;20468;-68
2024/03/03 10:35:21;;;;;;;2.53;0.70;;;18.10;23.10;;;;;;5072272;28;20510;-68
2024/03/03 10:37:59;;;;;;;3.83;0.70;;;18.00;22.70;;;;;;5071690;28;20425;-68
2024/03/03 10:40:30;;;;;;;3.50;1.07;;;17.90;23.20;;;;;;5071408;28;20436;-68
2024/03/03 10:42:57;;;;;;;2.10;0.90;;;17.90;24.20;;;;;;5071608;28;20525;-68
2024/03/03 10:45:26;;;;;;;4.00;0.90;;;18.60;22.80;;;;;;5061285;28;20435;-68
2024/03/03 10:47:54;;;;;;;5.57;1.00;;;18.90;22.40;;;;;;5070404;28;20436;-68
2024/03/03 10:50:22;;;;;;;3.60;0.90;;;19.20;22.60;;;;;;5070329;28;20456;-68
2024/03/03 10:52:50;;;;;;;2.50;1.00;;;19.40;22.60;;;;;;5070918;28;20475;-69
2024/03/03 10:55:17;;;;;;;2.10;0.83;;;19.90;22.30;;;;;;5071514;28;20483;-69
2024/03/03 10:57:45;;;;;;;4.97;0.83;;;20.70;22.00;;;;;;5070652;28;20964;-69
2024/03/03 11:00:22;;;;;;;2.17;0.70;;;21.10;21.20;;;;;;5071436;28;20475;-69
2024/03/03 11:02:51;;;;;;;1.90;0.80;;;21.40;20.60;;;;;;5071246;28;20519;-69
2024/03/03 11:05:18;;;;;;;2.50;1.00;;;22.30;20.00;;;;;;5067747;28;20436;-69
2024/03/03 11:07:46;;;;;;;1.90;0.60;;;23.00;19.20;;;;;;5072775;28;20512;-70
2024/03/03 11:10:14;;;;;;;2.23;0.87;;;23.70;18.90;;;;;;5074552;28;20516;-69
2024/03/03 11:12:44;;;;;;;2.97;1.00;;;24.00;18.20;;;;;;5074736;28;20774;-69
2024/03/03 11:18:04;;;;;;;1.90;0.67;;;25.30;18.70;;;;;;5073425;28;20420;-69
2024/03/03 11:20:36;;;;;;;3.20;1.03;;;25.50;16.30;;;;;;5074810;28;20775;-68
2024/03/03 11:23:11;;;;;;;2.93;0.90;;;25.40;15.30;;;;;;5074433;28;20577;-69
2024/03/03 11:25:54;;;;;;;2.20;0.70;;;25.30;17.20;;;;;;5074714;28;20431;-69
2024/03/03 11:28:24;;;;;;;2.63;0.80;;;25.80;16.60;;;;;;5073662;28;20435;-69
2024/03/03 11:30:52;;;;;;;2.50;0.77;;;26.40;17.60;;;;;;5074245;28;20438;-68
2024/03/03 11:33:22;;;;;;;5.37;1.20;;;27.00;15.10;;;;;;5073865;28;21044;-69
2024/03/03 11:35:50;;;;;;;2.30;0.90;;;27.10;14.10;;;;;;5073714;28;20489;-68
2024/03/03 11:38:17;;;;;;;2.90;1.00;;;26.40;13.60;;;;;;5074057;28;20427;-68
2024/03/03 11:40:49;;;;;;;2.37;0.83;;;25.50;14.20;;;;;;5073987;28;20554;-69
2024/03/03 11:43:16;;;;;;;2.40;1.00;;;24.90;15.00;;;;;;5071449;28;20510;-69
2024/03/03 11:45:45;;;;;;;2.33;0.80;;;24.90;15.90;;;;;;5072928;28;20665;-69
2024/03/03 11:48:14;;;;;;;2.27;0.93;;;24.90;15.80;;;;;;5073542;28;20498;-69
2024/03/03 11:50:44;;;;;;;3.47;0.70;;;25.10;15.30;;;;;;5073537;28;20459;-69
2024/03/03 11:53:11;;;;;;;2.73;0.80;;;25.10;14.70;;;;;;5074233;28;20451;-68
2024/03/03 11:55:39;;;;;;;2.30;0.90;;;24.90;16.10;;;;;;5074037;28;20472;-69
2024/03/03 11:58:06;;;;;;;5.47;2.40;;;24.80;15.40;;;;;;5074192;28;20436;-70
2024/03/03 12:00:33;;;;;;;4.47;1.47;;;24.70;16.10;;;;;;5074378;28;20952;-69
2024/03/03 12:03:01;;;;;;;5.70;1.20;;;24.80;15.40;;;;;;5073339;28;20432;-69
2024/03/03 12:05:28;;;;;;;2.70;1.10;;;24.70;15.20;;;;;;5073735;28;20486;-69
2024/03/03 12:07:57;;;;;;;2.53;0.80;;;24.70;15.60;;;;;;5074394;28;20443;-69
2024/03/03 12:10:26;;;;;;;5.80;0.80;;;25.10;15.20;;;;;;5072584;28;20941;-68
2024/03/03 12:12:54;;;;;;;2.80;1.20;;;25.50;13.90;;;;;;5074004;28;20895;-68
2024/03/03 12:15:23;;;;;;;3.17;1.40;;;25.80;14.30;;;;;;5073637;28;20428;-68
2024/03/03 12:17:51;;;;;;;3.00;1.70;;;25.90;14.80;;;;;;5073815;28;20821;-69
2024/03/03 12:20:20;;;;;;;3.03;1.27;;;26.10;14.70;;;;;;5073712;28;20456;-70
2024/03/03 12:22:48;;;;;;;2.87;1.13;;;26.20;15.10;;;;;;5073122;28;20854;-68
2024/03/03 12:25:18;;;;;;;2.20;0.93;;;26.20;13.40;;;;;;5072969;28;20436;-68
2024/03/03 12:27:50;;;;;;;2.30;0.90;;;25.70;13.10;;;;;;5073515;28;20436;-68
2024/03/03 12:30:22;;;;;;;2.20;0.90;;;25.30;13.60;;;;;;5073438;28;20883;-68
2024/03/03 12:32:50;;;;;;;2.37;1.10;;;25.10;14.00;;;;;;5072140;28;20467;-69
2024/03/03 12:35:17;;;;;;;5.97;2.60;;;24.90;15.10;;;;;;5073515;28;20459;-68
2024/03/03 12:37:51;;;;;;;2.57;0.90;;;24.90;14.10;;;;;;5071728;28;20537;-68
2024/03/03 12:40:19;;;;;;;4.03;1.03;;;25.10;13.80;;;;;;5071703;28;20459;-68
2024/03/03 12:42:49;;;;;;;6.00;0.67;;;25.30;13.70;;;;;;5072658;28;20866;-69
2024/03/03 12:45:17;;;;;;;2.10;0.80;;;25.00;14.30;;;;;;5072134;28;20446;-69
2024/03/03 12:47:45;;;;;;;3.00;0.80;;;25.10;14.40;;;;;;5073501;28;20531;-68
2024/03/03 12:50:13;;;;;;;21.53;17.30;;;25.00;14.20;;;;;;5072719;28;20431;-68
2024/03/03 12:52:41;;;;;;;8.70;6.70;;;25.00;14.80;;;;;;5073194;28;20456;-68
2024/03/03 12:55:09;;;;;;;4.53;1.73;;;24.90;14.40;;;;;;5073062;28;20515;-68
2024/03/03 12:57:37;;;;;;;2.53;0.90;;;24.90;13.70;;;;;;5073341;28;20436;-68
2024/03/03 13:00:05;;;;;;;2.10;0.97;;;24.80;13.60;;;;;;5072219;28;20481;-70